Time;durP1;ratioP1;P1;durP2;ratioP2;P2;SDS_P1;SDS_P2;PMS_P1;PMS_P2;Temp;Humidity;BMP_temperature;BMP_pressure;BME280_temperature;BME280_humidity;BME280_pressure;Samples;Min_cycle;Max_cycle;Signal;HPM_P1;HPM_P2
2022/09/04 00:01:30;;;;;;;12.98;10.27;;;22.80;99.90;;;23.60;60.12;101170.09;5113856;28;20389;-67
2022/09/04 00:04:13;;;;;;;14.67;11.33;;;23.00;99.90;;;23.23;60.90;101178.31;5113872;28;20039;-67
2022/09/04 00:06:55;;;;;;;12.30;11.10;;;22.80;99.90;;;23.16;61.26;101182.31;5113737;28;20289;-67
2022/09/04 00:09:31;;;;;;;12.85;10.88;;;22.60;99.90;;;23.11;61.21;101187.94;5113206;28;20047;-67
2022/09/04 00:12:07;;;;;;;14.63;12.65;;;22.60;99.90;;;23.11;61.40;101181.69;5113682;28;20048;-67
2022/09/04 00:14:43;;;;;;;14.35;12.85;;;22.50;99.90;;;23.01;62.62;101177.69;5113414;28;20071;-67
2022/09/04 00:17:20;;;;;;;14.50;13.02;;;22.50;99.90;;;22.69;64.03;101178.41;5113481;28;20036;-67
2022/09/04 00:19:55;;;;;;;13.57;12.15;;;22.20;99.90;;;22.60;63.42;101184.25;5112108;28;20458;-67
2022/09/04 00:22:34;;;;;;;18.23;12.25;;;22.00;99.90;;;22.59;64.26;101177.13;5113377;28;20067;-67
2022/09/04 00:25:12;;;;;;;17.23;13.00;;;22.00;99.90;;;22.63;63.69;101166.09;5113290;28;20175;-67
2022/09/04 00:27:47;;;;;;;19.67;14.10;;;22.10;99.90;;;22.78;63.46;101186.94;5113487;28;20044;-67
2022/09/04 00:30:20;;;;;;;14.05;12.63;;;22.20;99.90;;;22.76;64.90;101196.94;5112008;28;20051;-67
2022/09/04 00:32:59;;;;;;;13.95;11.93;;;22.20;99.90;;;22.70;65.61;101196.34;5113313;28;20515;-67
2022/09/04 00:35:31;;;;;;;14.43;11.63;;;22.10;99.90;;;22.65;65.55;101198.41;5113332;28;20458;-67
2022/09/04 00:38:06;;;;;;;13.85;12.10;;;22.10;99.90;;;22.60;65.57;101200.44;5112995;28;20047;-67
2022/09/04 00:40:40;;;;;;;14.07;12.57;;;22.00;99.90;;;22.29;65.47;101174.94;5113107;28;20123;-67
2022/09/04 00:43:50;;;;;;;12.52;11.15;;;22.00;99.90;;;22.69;65.14;101216.16;5112726;28;20077;-67
2022/09/04 00:46:54;;;;;;;12.10;11.05;;;22.10;99.90;;;22.78;65.40;101223.84;5113002;28;20040;-67
2022/09/04 00:50:00;;;;;;;16.63;13.15;;;22.10;99.90;;;22.87;64.98;101226.06;5100305;28;20059;-67
2022/09/04 00:52:53;;;;;;;12.20;11.00;;;22.20;99.90;;;22.71;65.38;101227.75;5106705;28;20063;-67
2022/09/04 00:55:47;;;;;;;14.18;12.55;;;22.20;99.90;;;22.11;65.48;101138.06;5112770;28;20066;-67
2022/09/04 00:58:33;;;;;;;16.92;12.07;;;22.00;99.90;;;22.49;66.43;101208.16;5112995;28;20040;-67
2022/09/04 01:01:03;;;;;;;14.57;12.45;;;22.00;99.90;;;21.86;66.38;101125.81;5112937;28;20390;-67
2022/09/04 01:03:48;;;;;;;13.00;11.70;;;21.80;99.90;;;22.22;67.06;101227.38;5113010;28;20093;-67
2022/09/04 01:06:35;;;;;;;15.48;13.50;;;21.60;99.90;;;22.27;67.05;101230.75;5112855;28;20077;-67
2022/09/04 01:09:30;;;;;;;18.08;16.17;;;21.60;99.90;;;21.52;68.53;101108.47;5112963;28;20067;-67
2022/09/04 01:12:24;;;;;;;18.38;16.58;;;21.60;99.90;;;22.19;69.00;101229.34;5112703;28;20068;-67
2022/09/04 01:15:00;;;;;;;23.33;19.70;;;21.50;99.90;;;22.34;68.65;101240.28;5112983;28;20040;-67
2022/09/04 01:17:38;;;;;;;19.92;17.98;;;21.60;99.90;;;22.36;68.28;101235.69;5112737;28;20050;-67
2022/09/04 01:20:14;;;;;;;19.00;17.10;;;21.70;99.90;;;22.49;68.10;101232.44;5113090;28;20039;-67
2022/09/04 01:22:59;;;;;;;17.13;15.52;;;21.80;99.90;;;22.59;67.70;101237.31;5116304;28;20074;-67
2022/09/04 01:25:56;;;;;;;19.50;17.50;;;22.00;99.90;;;22.50;67.71;101228.75;5116730;28;20496;-67
2022/09/04 01:28:33;;;;;;;17.60;15.35;;;22.00;99.90;;;22.58;67.60;101235.59;5116786;28;20465;-67
2022/09/04 01:31:12;;;;;;;19.27;16.17;;;22.00;99.90;;;22.62;67.45;101239.88;5116537;28;20112;-67
2022/09/04 01:33:53;;;;;;;17.13;15.43;;;22.00;99.90;;;22.65;67.27;101242.41;5116805;28;20047;-67
2022/09/04 01:36:35;;;;;;;16.20;14.60;;;22.10;99.90;;;22.55;67.58;101235.69;5116503;28;20050;-67
2022/09/04 01:39:04;;;;;;;16.77;14.93;;;22.00;99.90;;;22.48;67.73;101219.88;5116372;28;20043;-67
2022/09/04 01:41:38;;;;;;;16.80;14.88;;;22.00;99.90;;;22.61;67.84;101250.75;5116412;28;20123;-67
2022/09/04 01:44:10;;;;;;;16.73;15.13;;;22.00;99.90;;;22.53;68.17;101245.66;5116270;28;20127;-67
2022/09/04 01:46:46;;;;;;;16.58;14.88;;;21.90;99.90;;;22.58;67.93;101238.28;5115077;28;20408;-67
2022/09/04 01:49:30;;;;;;;16.55;15.05;;;21.90;99.90;;;22.73;67.62;101251.03;5116180;28;20100;-67
2022/09/04 01:52:11;;;;;;;17.95;16.17;;;22.10;99.90;;;22.58;67.89;101223.91;5116293;28;20048;-67
2022/09/04 01:54:53;;;;;;;18.73;16.83;;;22.10;99.90;;;22.62;68.02;101257.88;5116188;28;20062;-67
2022/09/04 01:57:48;;;;;;;19.05;17.05;;;22.00;99.90;;;22.33;69.37;101257.41;5116057;28;20036;-67
2022/09/04 02:00:21;;;;;;;21.58;19.48;;;21.70;99.90;;;22.42;69.37;101261.50;5114991;28;20469;-67
2022/09/04 02:03:07;;;;;;;21.05;18.85;;;21.70;99.90;;;22.46;69.39;101257.69;5116011;28;20493;-67
2022/09/04 02:05:54;;;;;;;25.48;21.65;;;21.80;99.90;;;22.45;69.35;101255.97;5116164;28;20118;-67
2022/09/04 02:08:39;;;;;;;23.77;21.27;;;21.80;99.90;;;22.50;69.31;101262.00;5115871;28;20393;-67
2022/09/04 02:11:14;;;;;;;25.02;22.45;;;21.80;99.90;;;22.38;69.78;101265.28;5116001;28;20071;-67
2022/09/04 02:14:07;;;;;;;25.92;23.33;;;21.70;99.90;;;21.67;71.11;101224.53;5115966;28;20067;-67
2022/09/04 02:16:47;;;;;;;23.60;21.27;;;21.40;99.90;;;21.83;72.17;101266.03;5116005;28;20073;-67
2022/09/04 02:19:35;;;;;;;25.45;22.90;;;21.20;99.90;;;21.79;72.22;101273.34;5115862;28;20118;-67
2022/09/04 02:22:16;;;;;;;25.15;22.58;;;21.20;99.90;;;21.49;72.72;101235.16;5115862;28;20043;-67
2022/09/04 02:24:53;;;;;;;24.38;21.77;;;21.00;99.90;;;21.39;73.44;101241.00;5115588;28;20067;-67
2022/09/04 02:27:31;;;;;;;23.63;20.83;;;20.90;99.90;;;21.64;73.42;101267.78;5115501;28;20381;-67
2022/09/04 02:30:05;;;;;;;22.70;20.17;;;21.00;99.90;;;21.65;73.06;101272.19;5115702;28;20051;-67
2022/09/04 02:32:39;;;;;;;21.60;19.50;;;21.10;99.90;;;21.75;72.71;101279.81;5115419;28;20100;-67
2022/09/04 02:35:15;;;;;;;22.00;19.80;;;21.20;99.90;;;21.80;72.53;101280.50;5115367;28;20044;-67
2022/09/04 02:37:56;;;;;;;18.98;17.23;;;21.30;99.90;;;21.90;72.08;101279.19;5115186;28;20079;-67
2022/09/04 02:40:32;;;;;;;20.45;18.48;;;21.40;99.90;;;21.95;72.10;101285.22;5115252;28;20090;-67
2022/09/04 02:43:20;;;;;;;19.27;17.35;;;21.40;99.90;;;22.03;71.86;101284.88;5115093;28;20070;-66
2022/09/04 02:46:00;;;;;;;21.33;18.17;;;21.50;99.90;;;21.86;71.68;101273.97;5113900;28;20059;-67
2022/09/04 02:48:39;;;;;;;18.17;16.38;;;21.40;99.90;;;22.09;71.60;101290.00;5115272;28;20079;-66
2022/09/04 02:51:20;;;;;;;18.02;16.40;;;21.50;99.90;;;21.95;71.89;101292.44;5115069;28;20555;-67
2022/09/04 02:53:59;;;;;;;19.13;17.23;;;21.40;99.90;;;21.86;71.92;101265.91;5115084;28;20470;-66
2022/09/04 02:56:43;;;;;;;17.90;16.23;;;21.40;99.90;;;21.83;71.42;101261.53;5114911;28;20067;-67
2022/09/04 02:59:30;;;;;;;19.08;17.27;;;21.50;99.90;;;21.59;71.39;101203.34;5114953;28;20090;-66
2022/09/04 03:02:03;;;;;;;19.02;16.17;;;21.50;99.90;;;21.93;71.87;101289.78;5114904;28;20101;-66
2022/09/04 03:04:42;;;;;;;19.70;17.77;;;21.40;99.90;;;21.83;72.50;101292.97;5114820;28;20100;-67
2022/09/04 03:07:19;;;;;;;20.45;17.23;;;21.20;99.90;;;21.67;73.13;101291.84;5115081;28;20130;-66
2022/09/04 03:09:53;;;;;;;19.27;17.38;;;21.10;99.90;;;21.62;73.57;101294.78;5113546;28;20473;-67
2022/09/04 03:12:35;;;;;;;18.10;16.40;;;21.00;99.90;;;21.51;73.69;101276.38;5114718;28;20051;-67
2022/09/04 03:15:15;;;;;;;19.10;16.67;;;21.00;99.90;;;21.70;73.74;101297.97;5114553;28;20044;-67
2022/09/04 03:17:57;;;;;;;19.73;17.73;;;21.10;99.90;;;21.83;73.06;101301.94;5114822;28;20052;-67
2022/09/04 03:20:29;;;;;;;19.67;17.77;;;21.20;99.90;;;21.92;72.74;101304.22;5114734;28;20400;-67
2022/09/04 03:23:02;;;;;;;20.85;18.15;;;21.40;99.90;;;21.98;72.36;101308.47;5114491;28;20112;-67
2022/09/04 03:26:09;;;;;;;19.65;16.90;;;21.40;99.90;;;21.99;72.13;101307.53;5114328;28;20089;-67
2022/09/04 03:28:51;;;;;;;19.73;17.83;;;21.40;99.90;;;21.83;72.25;101288.47;5114594;28;20519;-66
2022/09/04 03:31:31;;;;;;;18.70;17.00;;;21.40;99.90;;;21.86;72.17;101291.03;5114356;28;20074;-67
2022/09/04 03:34:20;;;;;;;18.83;16.73;;;21.40;99.90;;;22.02;72.01;101313.66;5114224;28;20105;-66
2022/09/04 03:37:07;;;;;;;18.33;16.38;;;21.50;99.90;;;22.05;71.84;101321.59;5114765;28;20050;-66
2022/09/04 03:39:50;;;;;;;17.80;16.00;;;21.50;99.90;;;22.06;71.95;101314.41;5114269;28;20071;-66
2022/09/04 03:42:33;;;;;;;17.98;16.17;;;21.50;99.90;;;22.02;72.01;101318.16;5114688;28;20130;-66
2022/09/04 03:45:16;;;;;;;17.85;16.05;;;21.40;99.90;;;22.00;71.90;101311.97;5113162;28;20052;-66
2022/09/04 03:48:03;;;;;;;18.38;16.40;;;21.50;99.90;;;21.97;71.99;101323.75;5114096;28;20509;-66
2022/09/04 03:50:44;;;;;;;18.30;16.50;;;21.50;99.90;;;21.97;72.47;101323.75;5113799;28;20048;-67
2022/09/04 03:53:18;;;;;;;;;;;21.40;99.90;;;21.87;72.97;101322.44;5114447;28;20100;-66
2022/09/04 03:56:19;;;;;;;18.65;16.75;;;21.30;99.90;;;21.70;73.73;101330.28;5113969;28;20029;-67
2022/09/04 03:59:01;;;;;;;18.65;16.75;;;21.10;99.90;;;21.81;73.47;101329.88;5114048;28;20040;-66
2022/09/04 04:01:46;;;;;;;20.20;17.60;;;21.20;99.90;;;21.89;73.26;101331.28;5113990;27;20043;-67
2022/09/04 04:04:51;;;;;;;19.80;18.00;;;21.30;99.90;;;21.81;73.55;101333.47;5113756;28;20439;-67
2022/09/04 04:07:36;;;;;;;21.23;18.52;;;21.30;99.90;;;21.76;73.94;101340.81;5111562;28;20121;-67
2022/09/04 04:10:18;;;;;;;19.10;17.08;;;21.10;99.90;;;21.83;73.60;101342.34;5113659;28;20512;-66
2022/09/04 04:13:34;;;;;;;20.00;17.25;;;21.20;99.90;;;21.85;73.52;101343.16;5113725;28;20061;-67
2022/09/04 04:16:29;;;;;;;20.33;17.58;;;21.30;99.90;;;21.87;73.34;101340.41;5113592;28;20035;-67
2022/09/04 04:19:26;;;;;;;22.88;18.88;;;21.30;99.90;;;21.70;73.89;101334.84;5113410;28;20056;-67
2022/09/04 04:22:10;;;;;;;20.60;18.60;;;21.10;99.90;;;21.45;74.29;101308.03;5113367;28;20122;-66
2022/09/04 04:24:56;;;;;;;21.60;19.58;;;21.00;99.90;;;21.81;74.16;101338.84;5113300;28;20489;-66
2022/09/04 04:27:53;;;;;;;22.02;19.73;;;21.20;99.90;;;21.90;74.13;101340.25;5113353;28;20093;-66
2022/09/04 04:30:23;;;;;;;22.20;19.80;;;21.30;99.90;;;21.91;73.99;101344.72;5113551;28;20071;-67
2022/09/04 04:33:22;;;;;;;21.00;18.90;;;21.40;99.90;;;21.92;73.81;101351.84;5113268;28;20083;-66
2022/09/04 04:35:57;;;;;;;25.52;19.45;;;21.40;99.90;;;21.90;73.95;101354.59;5113201;28;20043;-66
2022/09/04 04:38:46;;;;;;;21.90;19.25;;;21.30;99.90;;;21.87;74.32;101354.75;5113141;28;20040;-67
2022/09/04 04:42:02;;;;;;;23.30;20.70;;;21.30;99.90;;;21.74;75.15;101364.25;5113201;28;20532;-67
2022/09/04 04:45:48;;;;;;;24.70;21.25;;;21.10;99.90;;;21.70;75.57;101349.16;5111523;28;20081;-67
2022/09/04 04:47:35;;;;;;;24.40;21.90;;;21.00;99.90;;;21.57;75.30;101323.69;5113542;28;20082;-67
2022/09/04 04:50:17;;;;;;;24.88;22.13;;;21.10;99.90;;;21.84;75.03;101346.78;5113120;28;20083;-67
2022/09/04 04:53:00;;;;;;;24.38;21.80;;;21.30;99.90;;;21.75;74.86;101327.41;5113081;28;20056;-67
2022/09/04 04:55:39;;;;;;;24.98;22.45;;;21.30;99.90;;;21.90;75.16;101360.00;5112961;28;20299;-67
2022/09/04 04:58:28;;;;;;;24.48;21.85;;;21.30;99.90;;;21.93;74.83;101365.25;5112948;28;20040;-67
2022/09/04 05:01:14;;;;;;;26.60;22.15;;;21.40;99.90;;;21.99;74.43;101370.34;5112975;28;20092;-67
2022/09/04 05:04:01;;;;;;;25.25;22.55;;;21.40;99.90;;;21.95;74.50;101379.50;5113425;28;20122;-67
2022/09/04 05:06:38;;;;;;;25.58;22.45;;;21.40;99.90;;;21.72;74.85;101357.19;5113284;28;20068;-67
2022/09/04 05:09:15;;;;;;;25.15;22.45;;;21.40;99.90;;;21.84;75.04;101378.22;5111596;28;20052;-66
2022/09/04 05:11:54;;;;;;;29.83;22.50;;;21.30;99.90;;;21.64;74.86;101365.56;5112738;28;20044;-67
2022/09/04 05:14:39;;;;;;;24.63;22.02;;;21.30;99.90;;;21.70;75.30;101394.94;5112852;28;20048;-67
2022/09/04 05:17:25;;;;;;;24.00;21.60;;;21.10;99.90;;;21.67;75.47;101388.81;5112850;28;20044;-66
2022/09/04 05:20:18;;;;;;;23.63;21.20;;;21.10;99.90;;;21.58;75.69;101380.16;5112699;28;20542;-67
2022/09/04 05:22:55;;;;;;;24.42;21.20;;;21.00;99.90;;;21.57;76.19;101396.38;5112937;28;20527;-67
2022/09/04 05:25:35;;;;;;;25.92;22.45;;;20.90;99.90;;;21.33;76.52;101374.03;5112741;28;20478;-67
2022/09/04 05:28:21;;;;;;;24.67;21.65;;;20.80;99.90;;;21.23;76.54;101347.56;5112743;28;20104;-66
2022/09/04 05:31:05;;;;;;;25.13;22.63;;;20.90;99.90;;;21.58;76.46;101401.69;5113180;28;20086;-66
2022/09/04 05:33:40;;;;;;;25.65;22.80;;;21.00;99.90;;;21.62;76.56;101402.47;5112840;28;20047;-67
2022/09/04 05:36:18;;;;;;;26.17;23.35;;;21.10;99.90;;;21.67;76.45;101410.34;5112771;28;20420;-67
2022/09/04 05:38:57;;;;;;;26.17;23.52;;;21.10;99.90;;;21.58;76.47;101399.00;5112596;28;20047;-67
2022/09/04 05:41:51;;;;;;;26.67;23.98;;;21.10;99.90;;;21.71;76.79;101418.25;5111461;28;20506;-67
2022/09/04 05:44:38;;;;;;;27.05;23.08;;;21.20;99.90;;;21.75;76.69;101427.06;5112357;28;20524;-67
2022/09/04 05:47:27;;;;;;;25.98;23.40;;;21.20;99.90;;;21.71;76.42;101406.59;5112442;28;20039;-67
2022/09/04 05:50:40;;;;;;;25.67;22.92;;;21.20;99.90;;;22.03;76.47;101436.66;5112713;28;20056;-67
2022/09/04 05:53:58;;;;;;;27.38;24.45;;;21.40;99.90;;;22.13;75.99;101438.03;5111162;28;20043;-67
2022/09/04 05:57:08;;;;;;;26.98;24.20;;;21.60;99.90;;;22.16;75.46;101443.28;5112413;28;20046;-67
2022/09/04 06:00:09;;;;;;;29.30;23.65;;;21.60;99.90;;;22.24;75.60;101443.81;5112366;28;20043;-67
2022/09/04 06:03:21;;;;;;;26.95;24.23;;;21.60;99.90;;;22.31;75.13;101445.31;5112563;28;20044;-67
2022/09/04 06:06:15;;;;;;;26.08;23.38;;;21.70;99.90;;;22.11;75.58;101445.28;5112205;28;20381;-68
2022/09/04 06:09:28;;;;;;;26.38;23.67;;;21.50;99.90;;;22.03;76.41;101446.56;5113903;28;20116;-67
2022/09/04 06:12:36;;;;;;;25.83;23.33;;;21.40;99.90;;;21.99;76.89;101455.72;5111706;28;20115;-67
2022/09/04 06:15:18;;;;;;;26.13;23.40;;;21.40;99.90;;;22.01;77.01;101461.94;5115847;27;20485;-67
2022/09/04 06:18:26;;;;;;;27.88;24.88;;;21.30;99.90;;;22.28;76.25;101475.09;5115854;28;20067;-67
2022/09/04 06:21:23;;;;;;;26.65;24.05;;;21.60;99.90;;;22.34;75.76;101472.13;5115705;28;20560;-67
2022/09/04 06:24:22;;;;;;;27.02;24.27;;;21.80;99.90;;;22.43;76.13;101465.47;5112795;28;20052;-67
2022/09/04 06:27:16;;;;;;;29.98;25.42;;;21.80;99.90;;;22.63;75.45;101470.03;5115637;28;20071;-67
2022/09/04 06:30:09;;;;;;;27.90;25.10;;;22.10;99.90;;;22.10;75.74;101381.56;5115738;28;20070;-67
2022/09/04 06:33:24;;;;;;;36.25;25.75;;;22.00;99.90;;;22.85;75.35;101470.81;5115827;28;20035;-67
2022/09/04 06:36:27;;;;;;;30.02;26.95;;;22.30;99.90;;;23.21;74.35;101474.50;5115388;28;20047;-66
2022/09/04 06:39:43;;;;;;;30.33;27.15;;;22.70;99.90;;;23.30;74.02;101464.19;5114055;28;20113;-67
2022/09/04 06:42:39;;;;;;;30.77;27.48;;;22.80;99.90;;;23.32;72.93;101414.63;5115227;28;20101;-67
2022/09/04 06:45:20;;;;;;;28.92;25.90;;;23.20;99.90;;;23.83;72.99;101485.00;5115189;28;20130;-67
2022/09/04 06:48:03;;;;;;;29.98;26.98;;;23.30;99.90;;;24.07;72.52;101495.53;5115413;28;20044;-67
2022/09/04 06:50:41;;;;;;;30.50;26.85;;;23.50;99.90;;;24.42;71.62;101496.44;5115043;28;20079;-66
2022/09/04 06:53:21;;;;;;;32.30;27.33;;;23.90;99.90;;;24.79;70.13;101506.25;5115155;27;20073;-66
2022/09/04 06:56:06;;;;;;;32.53;29.20;;;24.30;99.90;;;25.07;68.63;101509.22;5115075;28;20114;-66
2022/09/04 06:59:06;;;;;;;31.05;27.48;;;24.60;99.90;;;25.09;69.48;101510.03;5115142;28;20047;-67
2022/09/04 07:01:47;;;;;;;40.40;35.22;;;24.60;99.90;;;25.13;69.54;101506.19;5098214;28;20056;-66
2022/09/04 07:04:31;;;;;;;39.00;34.78;;;24.70;99.90;;;25.41;69.15;101501.06;5114498;28;20049;-67
2022/09/04 07:07:12;;;;;;;38.50;34.35;;;24.90;99.90;;;25.63;68.85;101504.28;5114768;28;20044;-67
2022/09/04 07:09:44;;;;;;;;;;;25.20;99.90;;;25.88;68.53;101517.31;5115494;27;20130;-66
2022/09/04 07:12:54;;;;;;;61.05;49.95;;;25.50;99.90;;;26.05;68.52;101510.94;5114741;28;19923;-66
2022/09/04 07:15:59;;;;;;;;;;;25.60;99.90;;;26.25;67.68;101516.97;5112439;28;20052;-67
2022/09/04 07:18:53;;;;;;;71.72;57.85;;;25.80;99.90;;;25.80;67.90;101428.28;5114474;28;19927;-67
2022/09/04 07:21:32;;;;;;;73.38;57.35;;;26.00;99.90;;;26.55;67.12;101526.00;5114394;28;20475;-66
2022/09/04 07:24:06;;;;;;;72.93;57.97;;;26.10;99.90;;;26.56;67.27;101532.28;5115028;28;20116;-67
2022/09/04 07:26:46;;;;;;;68.00;57.00;;;26.10;99.90;;;26.65;67.09;101529.03;5114487;28;20449;-66
2022/09/04 07:29:33;;;;;;;70.07;57.72;;;26.20;99.90;;;26.71;66.53;101532.25;5114369;28;20488;-67
2022/09/04 07:32:08;;;;;;;69.65;57.03;;;26.30;99.90;;;26.83;66.60;101536.06;5113294;28;20052;-67
2022/09/04 07:34:45;;;;;;;64.13;55.83;;;26.40;99.90;;;26.75;66.07;101508.53;5113111;28;20096;-67
2022/09/04 07:37:26;;;;;;;61.97;54.60;;;26.50;99.90;;;27.08;66.18;101549.03;5114271;28;20524;-67
2022/09/04 07:40:08;;;;;;;69.20;56.08;;;26.60;99.90;;;27.03;65.46;101554.75;5114172;28;20043;-67
2022/09/04 07:42:48;;;;;;;66.18;55.28;;;26.60;99.90;;;26.97;65.62;101525.25;5114078;28;20067;-67
2022/09/04 07:45:29;;;;;;;70.00;57.63;;;26.60;99.90;;;27.30;65.67;101547.59;5114237;28;20051;-67
2022/09/04 07:48:15;;;;;;;74.60;57.00;;;26.80;99.90;;;27.40;64.94;101532.50;5114123;28;20046;-67
2022/09/04 07:51:02;;;;;;;63.00;54.30;;;27.00;99.90;;;27.55;64.79;101555.97;5114250;28;20067;-67
2022/09/04 07:54:04;;;;;;;68.40;56.67;;;27.20;99.90;;;27.42;65.41;101554.13;5114241;28;20044;-67
2022/09/04 07:56:53;;;;;;;72.20;61.75;;;27.00;99.90;;;27.64;64.36;101551.81;5113737;28;20074;-67
2022/09/04 07:59:50;;;;;;;78.35;62.40;;;27.20;99.90;;;27.80;63.99;101568.00;5113784;28;20048;-67
2022/09/04 08:03:05;;;;;;;79.43;65.18;;;27.40;99.90;;;27.96;63.87;101569.66;5113568;28;20138;-67
2022/09/04 08:05:39;;;;;;;83.05;66.85;;;27.50;99.90;;;27.89;63.03;101537.47;5112467;28;20055;-67
2022/09/04 08:09:01;;;;;;;79.55;65.03;;;27.70;99.90;;;28.09;63.38;101569.69;5113514;28;20074;-67
2022/09/04 08:12:15;;;;;;;87.25;69.97;;;27.70;99.90;;;28.24;62.84;101575.00;5113687;28;20047;-67
2022/09/04 08:14:56;;;;;;;88.57;69.43;;;27.90;99.90;;;28.12;62.44;101570.41;5113410;28;20096;-67
2022/09/04 08:18:03;;;;;;;90.57;71.55;;;27.80;99.90;;;28.10;63.36;101583.22;5113280;28;20044;-67
2022/09/04 08:20:43;;;;;;;83.88;68.03;;;27.70;99.90;;;28.31;62.72;101587.25;5112669;28;20087;-67
2022/09/04 08:23:43;;;;;;;84.30;68.55;;;27.90;99.90;;;28.48;61.20;101586.97;5113492;28;20122;-67
2022/09/04 08:26:20;;;;;;;83.55;67.32;;;28.00;99.90;;;28.62;61.60;101598.81;5113556;28;20047;-67
2022/09/04 08:29:14;;;;;;;84.32;69.22;;;28.20;99.90;;;28.19;60.71;101510.97;5113462;28;20040;-66
2022/09/04 08:32:07;;;;;;;78.93;65.65;;;28.30;99.90;;;28.67;60.64;101583.91;5112878;28;20043;-67
2022/09/04 08:35:01;;;;;;;75.40;61.75;;;28.40;99.90;;;29.00;58.52;101607.94;5113183;28;20077;-67
2022/09/04 08:37:42;;;;;;;73.82;62.38;;;28.60;99.90;;;28.94;58.83;101608.41;5113218;28;20044;-67
2022/09/04 08:40:37;;;;;;;74.53;60.58;;;28.60;99.90;;;29.14;58.62;101611.53;5113132;28;20078;-67
2022/09/04 08:43:33;;;;;;;72.55;57.33;;;28.70;99.90;;;29.26;58.36;101610.66;5112804;28;20047;-67
2022/09/04 08:46:39;;;;;;;71.38;57.55;;;28.90;99.90;;;29.17;58.32;101610.44;5112849;28;20039;-67
2022/09/04 08:49:54;;;;;;;68.15;57.20;;;28.80;99.90;;;29.16;58.16;101615.00;5113537;28;20096;-67
2022/09/04 08:53:13;;;;;;;65.55;52.45;;;28.80;99.90;;;29.19;58.62;101613.94;5079684;28;20067;-67
2022/09/04 08:55:55;;;;;;;58.60;50.03;;;28.70;99.90;;;29.21;57.36;101601.91;5099084;28;20056;-66
2022/09/04 08:59:10;;;;;;;61.92;50.97;;;28.90;99.90;;;29.23;58.04;101615.44;5111728;28;20075;-67
2022/09/04 09:02:19;;;;;;;64.55;50.10;;;28.80;99.90;;;29.42;56.82;101623.22;5098145;28;20130;-67
2022/09/04 09:05:14;;;;;;;52.78;45.00;;;29.00;99.90;;;29.50;54.84;101624.38;5112863;28;20043;-67
2022/09/04 09:08:45;;;;;;;59.20;49.45;;;29.10;99.90;;;29.54;54.90;101630.53;5113216;28;20060;-67
2022/09/04 09:11:55;;;;;;;46.70;41.25;;;29.20;99.90;;;29.57;54.61;101638.47;5112709;28;20565;-67
2022/09/04 09:15:08;;;;;;;58.83;48.03;;;29.10;99.90;;;29.29;54.66;101629.53;5096479;28;20090;-67
2022/09/04 09:18:00;;;;;;;54.10;42.45;;;29.00;99.90;;;29.45;55.19;101621.13;5086185;28;20092;-67
2022/09/04 09:20:39;;;;;;;51.80;42.50;;;29.10;99.90;;;29.13;54.29;101541.63;5112855;28;20063;-66
2022/09/04 09:23:20;;;;;;;52.97;42.25;;;29.20;99.90;;;29.67;55.21;101634.13;5112624;28;20051;-66
2022/09/04 09:25:55;;;;;;;50.70;41.72;;;29.20;99.90;;;29.84;55.18;101636.53;5111279;28;20044;-66
2022/09/04 09:29:15;;;;;;;52.05;41.47;;;29.50;99.90;;;29.92;54.55;101639.56;5112535;28;20093;-66
2022/09/04 09:32:28;;;;;;;46.97;36.45;;;29.50;99.90;;;29.52;54.13;101640.66;5112716;28;20048;-66
2022/09/04 09:36:10;;;;;;;43.50;38.05;;;29.50;99.90;;;29.56;54.42;101636.75;5112454;28;20048;-66
2022/09/04 09:39:32;;;;;;;41.30;36.03;;;29.20;99.90;;;29.85;54.52;101644.59;5088398;28;20146;-66
2022/09/04 09:42:37;;;;;;;44.03;35.28;;;29.30;99.90;;;29.54;54.02;101639.56;5111221;28;20055;-67
2022/09/04 09:45:29;;;;;;;40.13;34.00;;;29.20;99.90;;;29.36;55.10;101629.97;5116575;28;20075;-66
2022/09/04 09:48:48;;;;;;;41.15;33.92;;;28.80;99.90;;;29.75;54.10;101635.31;5116407;28;20105;-66
2022/09/04 09:52:02;;;;;;;32.92;27.25;;;29.20;99.90;;;29.22;54.16;101633.66;5114806;28;20040;-66
2022/09/04 09:55:09;;;;;;;29.38;24.35;;;28.80;99.90;;;29.59;53.11;101642.84;5116767;28;20556;-66
2022/09/04 09:58:43;;;;;;;22.65;19.50;;;29.10;99.90;;;29.56;51.95;101628.56;5116066;28;20572;-66
2022/09/04 10:01:34;;;;;;;36.13;29.60;;;29.20;99.90;;;29.78;53.60;101631.50;5116072;28;20093;-66
2022/09/04 10:04:38;;;;;;;31.17;24.48;;;29.30;99.90;;;30.03;51.10;101642.38;5116131;28;20476;-66
2022/09/04 10:07:53;;;;;;;15.85;13.82;;;29.60;99.90;;;30.34;49.88;101636.44;5115981;28;20039;-66
2022/09/04 10:11:03;;;;;;;22.50;17.65;;;29.90;99.90;;;30.43;49.89;101622.09;5116265;28;20036;-67
2022/09/04 10:14:32;;;;;;;36.08;28.23;;;30.10;99.90;;;30.68;50.14;101635.63;5095156;28;20047;-67
2022/09/04 10:17:45;;;;;;;31.42;25.10;;;30.30;99.90;;;31.00;49.59;101635.94;5114622;28;20043;-67
2022/09/04 10:21:10;;;;;;;28.45;23.10;;;30.60;99.90;;;31.21;49.23;101642.47;5111693;28;20043;-67
2022/09/04 10:24:27;;;;;;;24.63;21.25;;;30.80;99.90;;;31.54;48.21;101644.44;5112525;27;20081;-67
2022/09/04 10:27:34;;;;;;;26.08;21.77;;;31.10;99.90;;;31.64;48.50;101648.19;5055869;28;20071;-67
2022/09/04 10:30:08;;;;;;;29.77;25.35;;;31.30;99.90;;;31.42;48.73;101650.88;5072754;28;20476;-67
2022/09/04 10:33:19;;;;;;;32.55;27.55;;;31.10;99.90;;;31.09;48.35;101632.47;5107862;28;20059;-67
2022/09/04 10:36:10;;;;;;;32.63;26.30;;;30.90;99.90;;;30.90;49.62;101641.25;5113930;28;20082;-67
2022/09/04 10:42:01;;;;;;;33.20;27.08;;;30.40;99.90;;;30.83;50.19;101639.09;5113486;28;20044;-67
2022/09/04 10:44:47;;;;;;;31.67;27.20;;;30.40;99.90;;;30.51;50.09;101638.78;5115212;28;20051;-67
2022/09/04 10:47:43;;;;;;;28.05;24.55;;;30.20;99.90;;;30.54;50.27;101648.63;5115316;27;20036;-67
2022/09/04 10:50:25;;;;;;;30.45;26.50;;;30.10;99.90;;;30.52;50.52;101656.06;5115209;27;20039;-68
2022/09/04 10:53:21;;;;;;;33.13;24.65;;;30.00;99.90;;;30.52;50.53;101653.31;5115345;28;20036;-68
2022/09/04 10:56:20;;;;;;;26.63;21.48;;;30.10;99.90;;;30.70;51.22;101654.66;5114752;28;20039;-68
2022/09/04 10:59:26;;;;;;;28.38;23.25;;;30.20;99.90;;;30.67;50.46;101642.09;5114937;28;20112;-68
2022/09/04 11:03:02;;;;;;;35.70;28.05;;;30.30;99.90;;;30.45;50.91;101660.25;5114840;28;20292;-68
2022/09/04 11:06:06;;;;;;;34.00;28.30;;;30.00;99.90;;;30.15;51.21;101655.16;5114531;28;20056;-66
2022/09/04 11:09:04;;;;;;;34.08;27.77;;;29.80;99.90;;;29.89;52.06;101646.13;5114742;28;20392;-66
2022/09/04 11:12:17;;;;;;;31.25;26.35;;;29.60;99.90;;;29.87;51.64;101652.66;5113484;28;20138;-67
2022/09/04 11:15:28;;;;;;;31.33;26.75;;;29.50;99.90;;;29.82;51.90;101655.75;5097802;28;20087;-66
2022/09/04 11:19:00;;;;;;;31.73;25.98;;;29.40;99.90;;;29.82;51.51;101649.41;5114427;28;20115;-66
2022/09/04 11:22:24;;;;;;;28.05;24.58;;;29.30;99.90;;;29.72;51.41;101646.47;5114583;28;20096;-67
2022/09/04 11:25:43;;;;;;;26.70;23.10;;;29.30;99.90;;;29.76;52.04;101647.13;5114189;28;20035;-67
2022/09/04 11:28:55;;;;;;;25.98;21.30;;;29.20;99.90;;;29.57;51.61;101647.53;5087713;28;20058;-67
2022/09/04 11:31:35;;;;;;;20.27;17.83;;;29.20;99.90;;;29.49;51.95;101644.47;5114132;28;20043;-67
2022/09/04 11:34:50;;;;;;;21.50;18.15;;;29.00;99.90;;;29.44;52.02;101653.97;5114331;28;20457;-67
2022/09/04 11:38:04;;;;;;;22.98;19.40;;;29.00;99.90;;;29.38;52.49;101649.81;5114373;28;20100;-67
2022/09/04 11:41:15;;;;;;;22.23;19.85;;;28.90;99.90;;;29.33;52.33;101651.97;5113887;28;20093;-67